BCS25K EDDL-EGKK
Flight info
| Callsign | BCS25K |
|---|---|
| Flight time | 0h 54m |
| Altitude | 30000 |
| Route | MODRU2T MODRU Z717 MAS UM617 SOGRI DCT DENUT L610 TEBRA |
| Aircraft | B77L/H-SDE1E2E3FGHIJ2J3J4J5M1RWXY/LB1D1 |
Departure
| Time | 2026-05-04 10:56 |
|---|---|
| Airport | Düsseldorf Airport (EDDL) |
Arrival
| Time | 2026-05-04 11:51 |
|---|---|
| Airport | London Gatwick Airport (EGKK) |
| Time | Latitude | Longitude | Altitude | Speed | Heading |
|---|---|---|---|---|---|
| 2026-05-04 10:29 | 51.28542 | 6.77506 | 131 ft | 0 kts | 142° |
| 2026-05-04 10:45 | 51.28545 | 6.77503 | 129 ft | 3 kts | 142° |
| 2026-05-04 10:45 | 51.28565 | 6.77479 | 134 ft | 4 kts | 133° |
| 2026-05-04 10:45 | 51.28576 | 6.77445 | 131 ft | 4 kts | 84° |
| 2026-05-04 10:46 | 51.28567 | 6.77408 | 134 ft | 4 kts | 52° |
| 2026-05-04 10:46 | 51.28551 | 6.77377 | 129 ft | 2 kts | 52° |
| 2026-05-04 10:46 | 51.28550 | 6.77375 | 129 ft | 0 kts | 52° |
| 2026-05-04 10:49 | 51.28642 | 6.77567 | 128 ft | 27 kts | 52° |
| 2026-05-04 10:49 | 51.28713 | 6.77831 | 128 ft | 23 kts | 53° |
| 2026-05-04 10:50 | 51.28810 | 6.78036 | 130 ft | 23 kts | 52° |
| 2026-05-04 10:51 | 51.29377 | 6.78456 | 153 ft | 0 kts | 24° |
| 2026-05-04 10:52 | 51.29392 | 6.78462 | 153 ft | 5 kts | 11° |
| 2026-05-04 10:52 | 51.29456 | 6.78467 | 154 ft | 13 kts | 0° |
| 2026-05-04 10:54 | 51.29475 | 6.78383 | 154 ft | 0 kts | 235° |
| 2026-05-04 10:56 | 51.27825 | 6.74831 | 1642 ft | 207 kts | 233° |
| 2026-05-04 10:56 | 51.26978 | 6.73001 | 3182 ft | 200 kts | 232° |
| 2026-05-04 10:56 | 51.26104 | 6.71192 | 4189 ft | 214 kts | 233° |
| 2026-05-04 10:57 | 51.25181 | 6.69180 | 4988 ft | 239 kts | 233° |
| 2026-05-04 10:57 | 51.24203 | 6.66903 | 5777 ft | 256 kts | 243° |
| 2026-05-04 10:57 | 51.23903 | 6.64070 | 6810 ft | 269 kts | 278° |
| 2026-05-04 10:57 | 51.24317 | 6.62204 | 7636 ft | 272 kts | 300° |
| 2026-05-04 10:58 | 51.25634 | 6.60024 | 8892 ft | 276 kts | 319° |
| 2026-05-04 10:58 | 51.27683 | 6.57458 | 10377 ft | 286 kts | 319° |
| 2026-05-04 10:58 | 51.28761 | 6.56110 | 10956 ft | 299 kts | 319° |
| 2026-05-04 10:58 | 51.30478 | 6.53953 | 11355 ft | 332 kts | 319° |
| 2026-05-04 10:59 | 51.32384 | 6.51539 | 11634 ft | 366 kts | 319° |
| 2026-05-04 10:59 | 51.34420 | 6.48943 | 12447 ft | 381 kts | 319° |
| 2026-05-04 10:59 | 51.36517 | 6.46257 | 13539 ft | 389 kts | 319° |
| 2026-05-04 10:59 | 51.38593 | 6.43464 | 14490 ft | 388 kts | 312° |
| 2026-05-04 11:00 | 51.40042 | 6.39884 | 15243 ft | 393 kts | 288° |
| 2026-05-04 11:01 | 51.28768 | 6.22917 | 21839 ft | 414 kts | 185° |
| 2026-05-04 11:02 | 51.25901 | 6.22397 | 22702 ft | 416 kts | 192° |
| 2026-05-04 11:02 | 51.23082 | 6.21337 | 23614 ft | 417 kts | 198° |
| 2026-05-04 11:05 | 50.94656 | 5.79697 | 29989 ft | 452 kts | 265° |
| 2026-05-04 11:06 | 50.95118 | 5.69694 | 29978 ft | 459 kts | 276° |
| 2026-05-04 11:06 | 50.96570 | 5.59776 | 29975 ft | 463 kts | 279° |
| 2026-05-04 11:10 | 51.06803 | 4.89761 | 29995 ft | 465 kts | 277° |
| 2026-05-04 11:12 | 51.12428 | 4.49391 | 29975 ft | 472 kts | 277° |
| 2026-05-04 11:12 | 51.13827 | 4.39192 | 29986 ft | 470 kts | 277° |
| 2026-05-04 11:13 | 51.15214 | 4.29020 | 29986 ft | 471 kts | 277° |
| 2026-05-04 11:13 | 51.16583 | 4.18888 | 29984 ft | 472 kts | 277° |
| 2026-05-04 11:14 | 51.17952 | 4.08682 | 29988 ft | 469 kts | 276° |
| 2026-05-04 11:16 | 51.23306 | 3.68067 | 29983 ft | 469 kts | 276° |
| 2026-05-04 11:16 | 51.24639 | 3.57892 | 29993 ft | 472 kts | 276° |
| 2026-05-04 11:17 | 51.25995 | 3.47627 | 29992 ft | 473 kts | 276° |
| 2026-05-04 11:19 | 51.31329 | 3.06450 | 30017 ft | 471 kts | 277° |
| 2026-05-04 11:19 | 51.32634 | 2.96190 | 30017 ft | 470 kts | 277° |
| 2026-05-04 11:20 | 51.33929 | 2.85935 | 30026 ft | 470 kts | 277° |
| 2026-05-04 11:20 | 51.35209 | 2.75742 | 30011 ft | 470 kts | 277° |
| 2026-05-04 11:22 | 51.40131 | 2.35259 | 30026 ft | 464 kts | 276° |
| 2026-05-04 11:23 | 51.41344 | 2.25104 | 30018 ft | 464 kts | 277° |
| 2026-05-04 11:24 | 51.45036 | 1.94717 | 29552 ft | 458 kts | 277° |
| 2026-05-04 11:25 | 51.45628 | 1.89727 | 28817 ft | 452 kts | 277° |
| 2026-05-04 11:25 | 51.46207 | 1.84811 | 28132 ft | 446 kts | 277° |
| 2026-05-04 11:25 | 51.46766 | 1.79954 | 27433 ft | 440 kts | 277° |
| 2026-05-04 11:26 | 51.47855 | 1.70404 | 26033 ft | 431 kts | 277° |
| 2026-05-04 11:27 | 51.43906 | 1.39748 | 20853 ft | 386 kts | 244° |
| 2026-05-04 11:28 | 51.42371 | 1.36245 | 19538 ft | 393 kts | 224° |
| 2026-05-04 11:28 | 51.40227 | 1.33498 | 18731 ft | 394 kts | 216° |
| 2026-05-04 11:28 | 51.38005 | 1.30924 | 18090 ft | 393 kts | 216° |
| 2026-05-04 11:28 | 51.35833 | 1.28401 | 17527 ft | 387 kts | 216° |
| 2026-05-04 11:29 | 51.33640 | 1.25843 | 16979 ft | 382 kts | 216° |
| 2026-05-04 11:29 | 51.31536 | 1.23378 | 16370 ft | 379 kts | 216° |
| 2026-05-04 11:29 | 51.29415 | 1.20888 | 15784 ft | 376 kts | 216° |
| 2026-05-04 11:29 | 51.27318 | 1.18423 | 15207 ft | 373 kts | 216° |
| 2026-05-04 11:31 | 51.15467 | 0.98521 | 11130 ft | 347 kts | 250° |
| 2026-05-04 11:33 | 51.11099 | 0.77345 | 9881 ft | 270 kts | 251° |
| 2026-05-04 11:33 | 51.10525 | 0.74519 | 9451 ft | 268 kts | 251° |
| 2026-05-04 11:33 | 51.09948 | 0.71695 | 8987 ft | 268 kts | 251° |
| 2026-05-04 11:34 | 51.09383 | 0.68938 | 8629 ft | 264 kts | 251° |
| 2026-05-04 11:34 | 51.08807 | 0.66126 | 8198 ft | 263 kts | 251° |
| 2026-05-04 11:34 | 51.08417 | 0.63362 | 7740 ft | 261 kts | 263° |
| 2026-05-04 11:34 | 51.08274 | 0.60441 | 7294 ft | 261 kts | 266° |
| 2026-05-04 11:35 | 51.08172 | 0.57610 | 7024 ft | 258 kts | 266° |
| 2026-05-04 11:35 | 51.08077 | 0.54760 | 7009 ft | 260 kts | 266° |
| 2026-05-04 11:35 | 51.07981 | 0.51882 | 6997 ft | 257 kts | 266° |
| 2026-05-04 11:35 | 51.07887 | 0.49097 | 6975 ft | 247 kts | 266° |
| 2026-05-04 11:36 | 51.07801 | 0.46431 | 6974 ft | 238 kts | 266° |
| 2026-05-04 11:36 | 51.07718 | 0.43761 | 6993 ft | 244 kts | 266° |
| 2026-05-04 11:36 | 51.07634 | 0.41074 | 6993 ft | 243 kts | 266° |
| 2026-05-04 11:36 | 51.07551 | 0.38400 | 6999 ft | 242 kts | 266° |
| 2026-05-04 11:37 | 51.07471 | 0.35736 | 6988 ft | 241 kts | 266° |
| 2026-05-04 11:37 | 51.07390 | 0.33084 | 6959 ft | 240 kts | 266° |
| 2026-05-04 11:37 | 51.07306 | 0.30442 | 6965 ft | 238 kts | 266° |
| 2026-05-04 11:37 | 51.07225 | 0.27811 | 6983 ft | 238 kts | 266° |
| 2026-05-04 11:38 | 51.07142 | 0.25158 | 6979 ft | 243 kts | 266° |
| 2026-05-04 11:38 | 51.07052 | 0.22459 | 6995 ft | 245 kts | 266° |
| 2026-05-04 11:38 | 51.06962 | 0.19757 | 6971 ft | 243 kts | 266° |
| 2026-05-04 11:38 | 51.06875 | 0.17080 | 6973 ft | 241 kts | 266° |
| 2026-05-04 11:39 | 51.06746 | 0.14431 | 6973 ft | 239 kts | 262° |
| 2026-05-04 11:39 | 51.06537 | 0.11847 | 6989 ft | 239 kts | 261° |
| 2026-05-04 11:40 | 51.05121 | -0.04153 | 6199 ft | 251 kts | 261° |
| 2026-05-04 11:41 | 51.04875 | -0.06866 | 6018 ft | 243 kts | 261° |
| 2026-05-04 11:41 | 51.04634 | -0.09522 | 6027 ft | 243 kts | 261° |
| 2026-05-04 11:41 | 51.04393 | -0.12177 | 5980 ft | 242 kts | 261° |
| 2026-05-04 11:41 | 51.04157 | -0.14826 | 5721 ft | 241 kts | 261° |
| 2026-05-04 11:42 | 51.03923 | -0.17428 | 5324 ft | 241 kts | 261° |
| 2026-05-04 11:42 | 51.03681 | -0.20048 | 4964 ft | 239 kts | 261° |
| 2026-05-04 11:42 | 51.03438 | -0.22665 | 4602 ft | 238 kts | 261° |
| 2026-05-04 11:42 | 51.03192 | -0.25264 | 4225 ft | 237 kts | 261° |
| 2026-05-04 11:43 | 51.02942 | -0.27859 | 3846 ft | 237 kts | 261° |
| 2026-05-04 11:43 | 51.02691 | -0.30434 | 3450 ft | 236 kts | 261° |
| 2026-05-04 11:43 | 51.02438 | -0.33010 | 3090 ft | 235 kts | 261° |
| 2026-05-04 11:43 | 51.02273 | -0.34670 | 3031 ft | 224 kts | 261° |
| 2026-05-04 11:44 | 51.02037 | -0.37033 | 2985 ft | 208 kts | 261° |
| 2026-05-04 11:44 | 51.01850 | -0.39216 | 2958 ft | 194 kts | 272° |
| 2026-05-04 11:44 | 51.02208 | -0.41257 | 3000 ft | 193 kts | 296° |
| 2026-05-04 11:44 | 51.02798 | -0.43192 | 3053 ft | 195 kts | 296° |
| 2026-05-04 11:45 | 51.03387 | -0.45147 | 3030 ft | 196 kts | 299° |
| 2026-05-04 11:45 | 51.04302 | -0.46657 | 2988 ft | 189 kts | 336° |
| 2026-05-04 11:45 | 51.05529 | -0.47246 | 3055 ft | 187 kts | 346° |
| 2026-05-04 11:45 | 51.06806 | -0.47763 | 3005 ft | 189 kts | 350° |
| 2026-05-04 11:46 | 51.08071 | -0.47527 | 2867 ft | 183 kts | 28° |
| 2026-05-04 11:46 | 51.08987 | -0.46255 | 2720 ft | 170 kts | 47° |
| 2026-05-04 11:46 | 51.09801 | -0.44934 | 2530 ft | 165 kts | 45° |
| 2026-05-04 11:46 | 51.10607 | -0.43650 | 2262 ft | 164 kts | 46° |
| 2026-05-04 11:47 | 51.11316 | -0.42268 | 2069 ft | 158 kts | 67° |
| 2026-05-04 11:47 | 51.11649 | -0.40577 | 2030 ft | 163 kts | 71° |
| 2026-05-04 11:47 | 51.12018 | -0.38861 | 2013 ft | 163 kts | 73° |
| 2026-05-04 11:47 | 51.12307 | -0.37123 | 2000 ft | 162 kts | 77° |
| 2026-05-04 11:48 | 51.12557 | -0.35378 | 1996 ft | 162 kts | 77° |
| 2026-05-04 11:48 | 51.12800 | -0.33624 | 1894 ft | 165 kts | 78° |
| 2026-05-04 11:48 | 51.13042 | -0.31868 | 1664 ft | 158 kts | 78° |
| 2026-05-04 11:48 | 51.13270 | -0.30216 | 1435 ft | 148 kts | 78° |
| 2026-05-04 11:49 | 51.13490 | -0.28617 | 1251 ft | 148 kts | 77° |
| 2026-05-04 11:49 | 51.13708 | -0.27038 | 1048 ft | 146 kts | 77° |
| 2026-05-04 11:49 | 51.13923 | -0.25474 | 835 ft | 143 kts | 77° |
| 2026-05-04 11:49 | 51.14134 | -0.23935 | 647 ft | 143 kts | 76° |
| 2026-05-04 11:50 | 51.14346 | -0.22406 | 460 ft | 140 kts | 76° |
| 2026-05-04 11:50 | 51.14556 | -0.20887 | 266 ft | 139 kts | 76° |
| 2026-05-04 11:50 | 51.14757 | -0.19441 | 219 ft | 125 kts | 77° |
| 2026-05-04 11:50 | 51.14910 | -0.18325 | 213 ft | 77 kts | 77° |
| 2026-05-04 11:51 | 51.14983 | -0.17776 | 216 ft | 24 kts | 78° |
| 2026-05-04 11:51 | 51.15002 | -0.17628 | 219 ft | 18 kts | 77° |
| 2026-05-04 11:51 | 51.15051 | -0.17375 | 217 ft | 28 kts | 64° |
| 2026-05-04 11:51 | 51.15107 | -0.17239 | 218 ft | 11 kts | 47° |
| 2026-05-04 11:52 | 51.15131 | -0.17217 | 216 ft | 0 kts | 19° |
| 2026-05-04 11:52 | 51.15154 | -0.17216 | 214 ft | 7 kts | 353° |
| 2026-05-04 11:52 | 51.15173 | -0.17231 | 214 ft | 0 kts | 325° |
| 2026-05-04 11:53 | 51.15190 | -0.17250 | 217 ft | 8 kts | 325° |
| 2026-05-04 11:53 | 51.15259 | -0.17329 | 219 ft | 13 kts | 331° |
| 2026-05-04 11:55 | 51.15412 | -0.17390 | 216 ft | 10 kts | 347° |
| 2026-05-04 11:55 | 51.15500 | -0.17422 | 214 ft | 12 kts | 347° |
| 2026-05-04 11:56 | 51.15539 | -0.17513 | 215 ft | 12 kts | 265° |
| 2026-05-04 11:56 | 51.15521 | -0.17647 | 216 ft | 13 kts | 256° |
| 2026-05-04 11:56 | 51.15500 | -0.17792 | 212 ft | 14 kts | 259° |
| 2026-05-04 11:56 | 51.15482 | -0.17932 | 216 ft | 13 kts | 258° |
| 2026-05-04 11:57 | 51.15468 | -0.18077 | 215 ft | 14 kts | 282° |